createdAt,value
2018-03-14T00:00:56.924Z,89.47
2018-03-14T00:03:22.905Z,88.77
2018-03-14T00:05:48.770Z,89.36
2018-03-14T00:08:14.640Z,89.19
2018-03-14T00:10:40.552Z,88.19
2018-03-14T00:13:06.421Z,88.78
2018-03-14T00:15:32.285Z,88.11
2018-03-14T00:17:58.275Z,88.76
2018-03-14T00:20:24.153Z,88.63
2018-03-14T00:22:50.023Z,88.27
2018-03-14T00:25:15.915Z,88.92
2018-03-14T00:27:41.783Z,88.38
2018-03-14T00:30:07.646Z,88.78
2018-03-14T00:32:33.636Z,88.55
2018-03-14T00:34:59.496Z,88.51
2018-03-14T00:37:25.367Z,88.60
2018-03-14T00:39:51.289Z,89.12
2018-03-14T00:42:17.164Z,88.59
2018-03-14T00:44:43.055Z,88.45
2018-03-14T00:47:08.948Z,88.16
2018-03-14T00:49:34.844Z,88.78
2018-03-14T00:52:00.733Z,88.73
2018-03-14T00:54:26.661Z,89.05
2018-03-14T00:56:52.540Z,89.07
2018-03-14T00:59:18.404Z,88.63
2018-03-14T01:01:44.400Z,88.71
2018-03-14T01:04:10.253Z,88.14
2018-03-14T01:06:36.240Z,88.32
2018-03-14T01:09:02.198Z,87.85
2018-03-14T01:11:28.063Z,88.38
2018-03-14T01:13:53.928Z,87.95
2018-03-14T01:16:19.849Z,87.64
2018-03-14T01:18:45.713Z,86.83
2018-03-14T01:21:11.597Z,87.62
2018-03-14T01:23:37.526Z,87.68
2018-03-14T01:26:03.414Z,87.10
2018-03-14T01:28:29.304Z,87.33
2018-03-14T01:30:55.302Z,86.82
2018-03-14T01:33:21.229Z,87.17
2018-03-14T01:35:47.112Z,87.05
2018-03-14T01:38:13.018Z,86.42
2018-03-14T01:40:38.905Z,86.13
2018-03-14T01:43:04.779Z,86.18
2018-03-14T01:45:30.698Z,86.46
2018-03-14T01:47:56.574Z,86.51
2018-03-14T01:50:22.454Z,86.67
2018-03-14T01:52:48.466Z,87.11
2018-03-14T01:55:14.358Z,86.68
2018-03-14T01:57:40.229Z,86.70
2018-03-14T02:00:06.136Z,87.16
2018-03-14T04:08:49.333Z,87.07
2018-03-14T04:11:15.193Z,86.82
2018-03-14T04:13:41.028Z,86.58
2018-03-14T04:16:06.908Z,86.82
2018-03-14T04:18:32.760Z,87.22
2018-03-14T04:20:58.600Z,87.09
2018-03-14T04:23:24.520Z,87.01
2018-03-14T04:25:50.374Z,87.22
2018-03-14T04:28:16.216Z,87.13
2018-03-14T04:30:42.099Z,86.81
2018-03-14T04:33:07.936Z,87.01
2018-03-14T04:35:33.777Z,86.71
2018-03-14T04:37:59.656Z,86.86
2018-03-14T04:40:25.513Z,86.82
2018-03-14T04:42:51.356Z,86.48
2018-03-14T04:45:17.241Z,86.57
2018-03-14T04:47:43.084Z,86.75
2018-03-14T04:50:08.921Z,86.16
2018-03-14T04:52:34.885Z,86.24
2018-03-14T04:55:00.753Z,86.32
2018-03-14T04:57:26.604Z,86.38
2018-03-14T04:59:52.494Z,85.90
2018-03-14T05:02:18.363Z,85.77
2018-03-14T05:04:44.196Z,86.12
2018-03-14T05:07:10.093Z,86.26
2018-03-14T05:09:36.060Z,85.29
2018-03-14T05:12:01.915Z,85.46
2018-03-14T05:14:27.804Z,85.15
2018-03-14T05:16:53.643Z,85.21
2018-03-14T05:19:19.485Z,84.51
2018-03-14T05:21:45.364Z,84.64
2018-03-14T05:24:11.204Z,84.92
2018-03-14T05:26:37.045Z,85.04
2018-03-14T05:29:02.969Z,85.37
2018-03-14T05:31:28.824Z,84.67
2018-03-14T05:36:57.222Z,84.59
2018-03-14T05:39:23.098Z,84.33
2018-03-14T05:41:48.973Z,84.21
2018-03-14T05:44:14.861Z,83.81
2018-03-14T05:46:40.947Z,84.22
2018-03-14T05:49:06.795Z,84.02
2018-03-14T05:51:32.689Z,84.00
2018-03-14T05:53:58.550Z,84.11
2018-03-14T05:56:24.397Z,84.29
2018-03-14T05:58:50.302Z,85.04
2018-03-14T06:01:16.158Z,84.52
2018-03-14T06:03:42.010Z,84.82
2018-03-14T06:06:08.015Z,84.44
2018-03-14T06:08:34.445Z,84.63
2018-03-14T06:11:00.357Z,84.97
2018-03-14T06:13:26.253Z,85.31
2018-03-14T06:15:52.105Z,85.48
2018-03-14T06:18:17.969Z,84.94
2018-03-14T06:20:43.860Z,84.80
2018-03-14T06:23:09.706Z,84.63
2018-03-14T06:25:35.567Z,84.89
2018-03-14T06:28:01.492Z,84.50
2018-03-14T06:30:27.345Z,83.66
2018-03-14T06:32:53.196Z,84.24
2018-03-14T06:35:19.077Z,83.79
2018-03-14T06:37:45.020Z,83.83
2018-03-14T06:40:10.887Z,83.96
2018-03-14T06:42:36.774Z,83.53
2018-03-14T06:45:02.657Z,83.45
2018-03-14T06:47:28.608Z,83.72
2018-03-14T06:49:54.612Z,82.94
2018-03-14T06:52:20.706Z,82.98
2018-03-14T06:54:46.742Z,83.22
2018-03-14T06:57:13.802Z,82.14
2018-03-14T06:59:52.084Z,82.74
2018-03-14T07:02:42.130Z,82.79
2018-03-14T07:05:20.266Z,82.44
2018-03-14T07:07:46.193Z,82.03
2018-03-14T07:10:12.132Z,82.14
2018-03-14T07:12:38.985Z,81.52
2018-03-14T07:15:05.006Z,82.34
2018-03-14T07:17:30.867Z,81.87
2018-03-14T07:19:56.724Z,80.97
2018-03-14T07:22:22.605Z,81.07
2018-03-14T07:24:48.508Z,80.60
2018-03-14T07:27:14.440Z,80.85
2018-03-14T07:29:40.309Z,80.98
2018-03-14T07:32:06.197Z,82.28
2018-03-14T07:34:32.055Z,78.95
2018-03-14T07:36:58.145Z,80.15
2018-03-14T07:39:24.084Z,80.76
2018-03-14T07:41:49.936Z,79.65
2018-03-14T07:44:16.362Z,79.31
2018-03-14T07:46:42.226Z,79.42
2018-03-14T07:49:08.078Z,78.48
2018-03-14T07:51:33.993Z,77.69
2018-03-14T07:53:59.862Z,79.04
2018-03-14T07:56:25.731Z,78.56
2018-03-14T07:58:51.638Z,80.00
2018-03-14T08:01:17.505Z,81.00
2018-03-14T08:03:43.377Z,78.37
2018-03-14T08:06:09.289Z,78.80
2018-03-14T08:08:35.240Z,78.53
2018-03-14T08:11:01.119Z,78.27
2018-03-14T08:13:27.177Z,78.07
2018-03-14T08:15:52.980Z,77.95
2018-03-14T08:18:18.837Z,77.59
2018-03-14T08:20:45.132Z,77.38
2018-03-14T08:23:11.002Z,77.09
2018-03-14T08:25:36.952Z,76.86
2018-03-14T08:28:02.841Z,77.83
2018-03-14T08:30:28.705Z,78.42
2018-03-14T08:32:54.552Z,79.78
2018-03-14T08:35:20.444Z,79.57
2018-03-14T08:37:46.398Z,80.69
2018-03-14T08:40:12.254Z,81.17
2018-03-14T08:42:38.177Z,80.64
2018-03-14T08:45:04.045Z,82.18
2018-03-14T08:47:29.896Z,83.25
2018-03-14T08:49:55.882Z,82.73
2018-03-14T08:52:21.734Z,83.95
2018-03-14T08:54:47.610Z,83.47
2018-03-14T08:57:13.526Z,84.13
2018-03-14T08:59:39.386Z,83.90
2018-03-14T09:02:05.347Z,85.02
2018-03-14T09:04:31.261Z,85.35
2018-03-14T09:06:57.160Z,85.97
2018-03-14T09:09:23.021Z,86.28
2018-03-14T09:11:48.948Z,85.80
2018-03-14T09:14:14.901Z,87.07
2018-03-14T09:16:40.760Z,86.47
2018-03-14T09:19:06.653Z,84.96
2018-03-14T09:21:32.521Z,85.43
2018-03-14T09:23:58.388Z,84.64
2018-03-14T09:26:24.392Z,85.29
2018-03-14T09:28:50.240Z,83.62
2018-03-14T09:31:16.125Z,83.91
2018-03-14T09:33:42.024Z,82.91
2018-03-14T09:36:07.882Z,81.81
2018-03-14T09:38:33.828Z,81.96
2018-03-14T09:40:59.719Z,81.44
2018-03-14T09:43:25.585Z,82.97
2018-03-14T09:45:51.433Z,82.29
2018-03-14T09:48:17.441Z,81.10
2018-03-14T09:50:43.332Z,80.50
2018-03-14T09:53:09.196Z,80.15
2018-03-14T09:55:35.102Z,78.22
2018-03-14T09:58:00.972Z,79.64
2018-03-14T10:00:26.816Z,79.17
2018-03-14T10:02:52.753Z,78.72
2018-03-14T10:05:18.617Z,79.56
2018-03-14T10:07:44.469Z,78.51
2018-03-14T10:10:10.350Z,78.50
2018-03-14T10:12:36.225Z,79.11
2018-03-14T10:15:02.074Z,79.34
2018-03-14T10:17:27.987Z,78.03
2018-03-14T10:19:53.836Z,77.92
2018-03-14T10:22:19.700Z,78.37
2018-03-14T10:24:45.600Z,78.74
2018-03-14T10:27:11.453Z,76.78
2018-03-14T10:29:37.311Z,76.87
2018-03-14T10:32:03.269Z,77.15
2018-03-14T10:34:29.135Z,76.56
2018-03-14T10:36:54.982Z,76.65
2018-03-14T10:39:20.855Z,76.18
2018-03-14T10:41:46.706Z,76.14
2018-03-14T10:44:12.566Z,75.34
2018-03-14T10:46:38.449Z,74.47
2018-03-14T10:49:04.308Z,74.69
2018-03-14T10:51:30.165Z,75.54
2018-03-14T10:53:56.054Z,74.45
2018-03-14T10:56:21.933Z,75.63
2018-03-14T10:58:47.844Z,74.29
2018-03-14T11:01:13.745Z,74.12
2018-03-14T11:03:43.546Z,74.05
2018-03-14T11:06:09.425Z,76.62
2018-03-14T11:08:36.384Z,73.87
2018-03-14T11:11:02.254Z,73.37
2018-03-14T11:13:28.109Z,75.06
2018-03-14T11:15:54.115Z,73.44
2018-03-14T11:18:19.975Z,73.05
2018-03-14T11:20:45.833Z,71.41
2018-03-14T11:23:11.733Z,72.11
2018-03-14T11:25:37.671Z,72.07
2018-03-14T11:28:03.668Z,72.82
2018-03-14T11:30:29.860Z,73.16
2018-03-14T11:32:55.714Z,73.21
2018-03-14T11:35:21.578Z,74.21
2018-03-14T11:37:47.474Z,74.83
2018-03-14T11:40:13.439Z,75.53
2018-03-14T11:42:39.288Z,75.89
2018-03-14T11:45:05.203Z,76.52
2018-03-14T11:47:31.060Z,75.13
2018-03-14T11:49:56.904Z,76.60
2018-03-14T11:52:22.901Z,78.10
2018-03-14T11:54:48.773Z,78.09
2018-03-14T11:57:14.639Z,78.46
2018-03-14T11:59:40.571Z,79.11
2018-03-14T12:02:06.427Z,79.33
2018-03-14T12:04:32.382Z,80.16
2018-03-14T12:06:58.290Z,80.99
2018-03-14T12:09:24.162Z,81.35
2018-03-14T12:11:50.035Z,82.05
2018-03-14T12:14:15.940Z,82.04
2018-03-14T12:16:41.897Z,82.37
2018-03-14T12:19:07.750Z,83.21
2018-03-14T12:21:34.039Z,83.87
2018-03-14T12:23:59.905Z,84.02
2018-03-14T12:26:25.761Z,84.72
2018-03-14T12:28:51.750Z,85.68
2018-03-14T12:31:17.593Z,85.42
2018-03-14T12:33:43.460Z,85.85
2018-03-14T12:36:09.360Z,86.47
2018-03-14T12:38:35.236Z,86.74
2018-03-14T12:41:01.174Z,86.44
2018-03-14T12:43:27.168Z,86.48
2018-03-14T12:45:53.059Z,85.49
2018-03-14T12:48:18.900Z,85.96
2018-03-14T12:50:44.802Z,85.94
2018-03-14T12:53:10.754Z,85.36
2018-03-14T12:55:36.623Z,85.01
2018-03-14T12:58:02.540Z,85.91
2018-03-14T13:00:28.408Z,85.33
2018-03-14T13:02:54.274Z,84.52
2018-03-14T13:05:20.261Z,84.54
2018-03-14T13:07:46.116Z,85.60
2018-03-14T13:10:11.977Z,84.04
2018-03-14T13:12:37.878Z,83.38
2018-03-14T13:15:03.746Z,82.95
2018-03-14T13:17:29.680Z,83.07
2018-03-14T13:19:55.737Z,83.07
2018-03-14T13:22:21.592Z,83.84
2018-03-14T13:24:47.458Z,82.19
2018-03-14T13:27:13.352Z,84.31
2018-03-14T13:29:39.318Z,83.09
2018-03-14T13:32:05.165Z,83.15
2018-03-14T13:34:31.061Z,82.80
2018-03-14T13:36:56.934Z,82.85
2018-03-14T13:39:22.802Z,82.70
2018-03-14T13:41:48.793Z,84.19
2018-03-14T13:44:14.641Z,83.94
2018-03-14T13:46:40.506Z,83.44
2018-03-14T13:49:06.419Z,83.75
2018-03-14T13:51:32.278Z,83.36
2018-03-14T13:53:58.221Z,83.26
2018-03-14T13:56:24.449Z,83.80
2018-03-14T13:58:50.306Z,83.04
2018-03-14T14:01:16.165Z,82.75
2018-03-14T14:03:42.093Z,83.06
2018-03-14T14:06:08.042Z,83.09
2018-03-14T14:08:33.898Z,82.27
2018-03-14T14:10:59.809Z,83.21
2018-03-14T14:13:25.669Z,82.48
2018-03-14T14:15:51.517Z,82.34
2018-03-14T14:18:18.585Z,82.00
2018-03-14T14:20:44.462Z,81.87
2018-03-14T14:23:10.325Z,81.62
2018-03-14T14:25:36.221Z,81.75
2018-03-14T14:28:02.084Z,82.31
2018-03-14T14:30:28.093Z,81.25
2018-03-14T14:32:54.013Z,81.63
2018-03-14T14:35:19.874Z,82.31
2018-03-14T14:37:45.716Z,81.88
2018-03-14T14:40:11.616Z,82.95
2018-03-14T14:42:37.552Z,82.63
2018-03-14T14:45:03.423Z,81.86
2018-03-14T14:47:29.325Z,82.19
2018-03-14T14:49:55.190Z,81.78
2018-03-14T14:52:21.037Z,81.55
2018-03-14T14:54:47.032Z,81.17
2018-03-14T14:57:12.890Z,80.69
2018-03-14T14:59:38.748Z,80.61
2018-03-14T15:02:05.098Z,80.31
2018-03-14T15:04:30.987Z,79.67
2018-03-14T15:06:56.948Z,80.04
2018-03-14T15:09:22.862Z,80.62
2018-03-14T15:11:48.736Z,80.32
2018-03-14T15:14:14.591Z,78.14
2018-03-14T15:16:40.490Z,78.77
2018-03-14T15:19:06.422Z,78.94
2018-03-14T15:21:32.385Z,79.98
2018-03-14T15:23:58.218Z,77.95
2018-03-14T15:26:24.081Z,77.94
2018-03-14T15:28:49.928Z,78.00
2018-03-14T15:31:15.831Z,78.07
2018-03-14T15:33:41.685Z,78.79
2018-03-14T15:36:07.540Z,79.22
2018-03-14T15:38:33.441Z,79.34
2018-03-14T15:40:59.302Z,75.93
2018-03-14T15:43:25.155Z,77.41
2018-03-14T15:45:51.077Z,78.69
2018-03-14T15:48:16.955Z,76.38
2018-03-14T15:50:42.816Z,75.97
2018-03-14T15:53:08.714Z,77.00
2018-03-14T15:55:34.573Z,79.01
2018-03-14T15:58:00.442Z,80.84
2018-03-14T16:00:26.352Z,82.29
2018-03-14T16:02:52.256Z,82.79
2018-03-14T16:05:18.072Z,83.64
2018-03-14T16:07:43.973Z,82.47
2018-03-14T16:10:09.889Z,82.68
2018-03-14T16:12:35.803Z,82.36
2018-03-14T16:15:01.709Z,82.88
2018-03-14T16:17:27.640Z,83.01
2018-03-14T16:19:53.498Z,82.36
2018-03-14T16:22:19.414Z,82.25
2018-03-14T16:24:45.279Z,82.20
2018-03-14T16:27:11.253Z,82.66
2018-03-14T16:29:37.270Z,83.12
2018-03-14T16:32:03.143Z,82.25
2018-03-14T16:34:29.034Z,82.42
2018-03-14T16:36:54.933Z,82.20
2018-03-14T16:39:20.833Z,82.76
2018-03-14T16:41:46.698Z,83.05
2018-03-14T16:44:12.597Z,82.96
2018-03-14T16:46:38.444Z,82.90
2018-03-14T16:49:04.298Z,83.10
2018-03-14T16:51:30.213Z,83.64
2018-03-14T16:53:56.060Z,82.91
2018-03-14T16:56:21.917Z,82.78
2018-03-14T16:58:47.890Z,80.82
2018-03-14T17:01:13.770Z,81.37
2018-03-14T17:03:39.650Z,80.59
2018-03-14T17:06:05.678Z,82.38
2018-03-14T17:08:31.537Z,82.75
2018-03-14T17:10:57.456Z,81.24
2018-03-14T17:13:23.357Z,82.34
2018-03-14T17:15:49.229Z,81.85
2018-03-14T17:18:15.105Z,82.84
2018-03-14T17:20:40.996Z,82.44
2018-03-14T17:23:06.849Z,82.18
2018-03-14T17:25:33.128Z,83.36
2018-03-14T17:27:59.108Z,84.62
2018-03-14T17:30:24.969Z,83.97
2018-03-14T17:32:50.825Z,83.87
2018-03-14T17:35:16.825Z,84.39
2018-03-14T17:37:42.686Z,84.86
2018-03-14T17:40:08.546Z,84.76
2018-03-14T17:42:34.450Z,84.10
2018-03-14T17:45:00.308Z,84.69
2018-03-14T17:47:26.157Z,84.67
2018-03-14T17:49:52.041Z,84.71
2018-03-14T17:52:17.889Z,84.78
2018-03-14T17:54:43.736Z,84.52
2018-03-14T17:57:09.682Z,84.85
2018-03-14T17:59:35.516Z,84.72
2018-03-14T18:02:01.372Z,84.76
2018-03-14T18:04:27.344Z,85.45
2018-03-14T18:06:53.206Z,85.44
2018-03-14T18:09:19.675Z,85.32
2018-03-14T18:11:45.681Z,86.00
2018-03-14T18:14:11.544Z,85.60
2018-03-14T18:16:37.394Z,85.59
2018-03-14T18:19:03.304Z,85.08
2018-03-14T18:21:29.153Z,84.85
2018-03-14T18:23:55.000Z,85.21
2018-03-14T18:26:20.905Z,85.12
2018-03-14T18:28:46.756Z,86.01
2018-03-14T18:31:12.620Z,85.68
2018-03-14T18:33:38.508Z,85.76
2018-03-14T18:36:04.370Z,85.83
2018-03-14T18:38:30.244Z,85.97
2018-03-14T18:40:56.147Z,86.29
2018-03-14T18:43:22.014Z,85.18
2018-03-14T18:45:47.873Z,85.62
2018-03-14T18:48:13.780Z,86.23
2018-03-14T18:50:39.625Z,86.32
2018-03-14T18:53:05.479Z,86.13
2018-03-14T18:55:31.384Z,86.30
2018-03-14T18:57:57.236Z,85.97
2018-03-14T19:00:23.103Z,86.19
2018-03-14T19:02:49.005Z,85.76
2018-03-14T19:05:14.876Z,86.27
2018-03-14T19:07:40.742Z,85.93
2018-03-14T19:10:06.649Z,86.47
2018-03-14T19:12:32.552Z,86.19
2018-03-14T19:14:58.426Z,86.18
2018-03-14T19:17:24.339Z,86.58
2018-03-14T19:19:50.207Z,86.40
2018-03-14T19:22:16.069Z,86.36
2018-03-14T19:24:41.969Z,86.62
2018-03-14T19:27:07.833Z,86.97
2018-03-14T19:29:33.682Z,86.05
2018-03-14T19:31:59.595Z,86.47
2018-03-14T19:34:25.553Z,87.05
2018-03-14T19:36:51.408Z,86.50
2018-03-14T19:39:17.305Z,86.87
2018-03-14T19:41:43.163Z,86.89
2018-03-14T19:44:09.029Z,87.31
2018-03-14T19:46:34.981Z,87.26
2018-03-14T19:49:00.854Z,87.19
2018-03-14T19:51:26.772Z,87.10
2018-03-14T19:53:52.652Z,86.80
2018-03-14T19:56:18.563Z,87.25
2018-03-14T19:58:44.384Z,87.03
2018-03-14T20:01:10.293Z,87.25
2018-03-14T20:03:36.144Z,86.62
2018-03-14T20:06:02.005Z,87.13
2018-03-14T20:08:27.907Z,86.95
2018-03-14T20:10:53.837Z,86.97
2018-03-14T20:13:19.749Z,87.25
2018-03-14T20:15:45.657Z,86.25
2018-03-14T20:18:11.526Z,86.50
2018-03-14T20:20:37.410Z,87.05
2018-03-14T20:23:03.320Z,86.22
2018-03-14T20:25:29.238Z,87.03
2018-03-14T20:27:55.097Z,86.37
2018-03-14T20:30:20.978Z,86.96
2018-03-14T20:32:46.838Z,86.19
2018-03-14T20:35:12.732Z,86.55
2018-03-14T20:37:38.622Z,86.59
2018-03-14T20:40:04.493Z,86.80
2018-03-14T20:42:30.347Z,86.54
2018-03-14T20:44:56.242Z,86.49
2018-03-14T20:47:22.098Z,86.66
2018-03-14T20:49:47.953Z,86.87
2018-03-14T20:52:13.853Z,86.77
2018-03-14T20:54:39.810Z,86.79
2018-03-14T20:57:05.671Z,86.90
2018-03-14T20:59:31.540Z,87.29
2018-03-14T21:01:57.394Z,87.12
2018-03-14T21:04:23.256Z,86.66
2018-03-14T21:06:49.137Z,86.84
2018-03-14T21:09:14.982Z,86.18
2018-03-14T21:11:40.843Z,86.82
2018-03-14T21:14:06.775Z,87.17
2018-03-14T21:16:32.628Z,86.60
2018-03-14T21:18:58.508Z,87.00
2018-03-14T21:21:24.794Z,87.37
2018-03-14T21:23:50.661Z,86.89
2018-03-14T21:26:16.522Z,86.32
2018-03-14T21:28:42.477Z,86.65
2018-03-14T21:31:08.381Z,86.66
2018-03-14T21:33:34.208Z,86.41
2018-03-14T21:36:00.084Z,86.69
2018-03-14T21:38:25.996Z,86.53
2018-03-14T21:40:51.804Z,86.65
2018-03-14T21:43:17.685Z,86.68
2018-03-14T21:45:43.559Z,86.60
2018-03-14T21:48:09.425Z,86.65
2018-03-14T21:50:35.334Z,86.75
2018-03-14T21:53:01.275Z,86.42
2018-03-14T21:55:37.268Z,87.00
2018-03-14T21:58:03.129Z,87.05
2018-03-14T22:00:29.011Z,86.59
2018-03-14T22:02:54.896Z,86.34
2018-03-14T22:05:20.761Z,85.94
2018-03-14T22:07:46.627Z,86.12
2018-03-14T22:10:12.519Z,86.40
2018-03-14T22:12:38.389Z,86.43
2018-03-14T22:15:04.268Z,86.24
2018-03-14T22:17:30.157Z,85.60
2018-03-14T22:19:56.074Z,86.45
2018-03-14T22:22:21.999Z,86.85
2018-03-14T22:24:47.902Z,86.00
2018-03-14T22:27:13.777Z,86.53
2018-03-14T22:29:39.634Z,86.30
2018-03-14T22:32:05.529Z,86.52
2018-03-14T22:34:31.409Z,86.55
2018-03-14T22:36:57.286Z,86.50
2018-03-14T22:39:23.188Z,86.52
2018-03-14T22:41:49.045Z,85.94
2018-03-14T22:44:14.898Z,85.76
2018-03-14T22:46:40.785Z,86.21
2018-03-14T22:49:06.646Z,86.44
2018-03-14T22:51:32.569Z,86.43
2018-03-14T22:53:58.458Z,85.84
2018-03-14T22:56:24.333Z,86.30
2018-03-14T22:58:50.188Z,86.28
2018-03-14T23:01:16.110Z,86.53
2018-03-14T23:03:41.974Z,86.35
2018-03-14T23:06:07.838Z,86.60
2018-03-14T23:08:33.732Z,87.24
2018-03-14T23:10:59.600Z,87.44
2018-03-14T23:13:25.454Z,87.17
2018-03-14T23:15:51.336Z,87.08
2018-03-14T23:18:17.193Z,87.33
2018-03-14T23:20:43.097Z,87.42
2018-03-14T23:23:08.982Z,87.41
2018-03-14T23:25:34.833Z,87.13
2018-03-14T23:28:00.715Z,87.52
2018-03-14T23:30:26.600Z,87.57
2018-03-14T23:32:52.477Z,87.66
2018-03-14T23:35:18.345Z,87.61
2018-03-14T23:37:44.242Z,87.55
2018-03-14T23:40:10.105Z,87.77
2018-03-14T23:42:35.958Z,88.11
2018-03-14T23:45:01.840Z,87.97
2018-03-14T23:47:27.753Z,87.72
2018-03-14T23:49:53.604Z,87.98
2018-03-14T23:52:19.506Z,87.61
2018-03-14T23:54:45.368Z,88.10
2018-03-14T23:57:11.330Z,87.94
2018-03-14T23:59:37.238Z,87.78
